sensor_id;sensor_type;location;lat;lon;timestamp;pressure;altitude;pressure_sealevel;temperature;humidity
76052;BME280;64751;48.708;9.710;2023-04-25T14:32:44;97317.44;;;10.78;69.10
76052;BME280;64751;48.708;9.710;2023-04-25T14:35:12;97319.41;;;10.68;69.36
76052;BME280;64751;48.708;9.710;2023-04-25T14:37:40;97315.63;;;10.74;68.96
76052;BME280;64751;48.708;9.710;2023-04-25T14:40:09;97307.66;;;10.79;69.69
76052;BME280;64751;48.708;9.710;2023-04-25T14:42:38;97310.25;;;10.84;69.20
76052;BME280;64751;48.708;9.710;2023-04-25T14:45:07;97310.09;;;10.94;68.07
76052;BME280;64751;48.708;9.710;2023-04-25T14:47:35;97316.53;;;10.88;69.48
76052;BME280;64751;48.708;9.710;2023-04-25T14:50:06;97306.31;;;10.81;69.15
76052;BME280;64751;48.708;9.710;2023-04-25T14:52:34;97301.81;;;10.82;68.83
76052;BME280;64751;48.708;9.710;2023-04-25T14:55:02;97311.59;;;10.81;70.24
76052;BME280;64751;48.708;9.710;2023-04-25T14:57:31;97307.28;;;10.67;70.00
76052;BME280;64751;48.708;9.710;2023-04-25T14:59:59;97319.25;;;10.59;69.63
76052;BME280;64751;48.708;9.710;2023-04-25T15:02:27;97310.03;;;10.57;69.91
76052;BME280;64751;48.708;9.710;2023-04-25T15:04:55;97326.19;;;10.74;69.69
76052;BME280;64751;48.708;9.710;2023-04-25T15:07:24;97315.38;;;10.75;69.35
76052;BME280;64751;48.708;9.710;2023-04-25T15:09:52;97311.78;;;10.66;70.11
76052;BME280;64751;48.708;9.710;2023-04-25T15:12:22;97316.75;;;10.68;69.89
76052;BME280;64751;48.708;9.710;2023-04-25T15:14:53;97321.25;;;10.67;69.99
76052;BME280;64751;48.708;9.710;2023-04-25T15:17:21;97316.25;;;10.66;67.62
76052;BME280;64751;48.708;9.710;2023-04-25T15:19:49;97323.50;;;10.79;69.02
76052;BME280;64751;48.708;9.710;2023-04-25T15:22:17;97306.19;;;10.91;69.17
76052;BME280;64751;48.708;9.710;2023-04-25T15:24:46;97308.47;;;11.17;68.26
76052;BME280;64751;48.708;9.710;2023-04-25T15:27:15;97313.97;;;11.39;68.83
76052;BME280;64751;48.708;9.710;2023-04-25T15:29:43;97320.13;;;11.34;67.81
76052;BME280;64751;48.708;9.710;2023-04-25T15:32:11;97317.41;;;11.39;66.96
76052;BME280;64751;48.708;9.710;2023-04-25T15:34:38;97315.94;;;11.33;68.19
76052;BME280;64751;48.708;9.710;2023-04-25T15:37:06;97314.34;;;11.32;68.12
76052;BME280;64751;48.708;9.710;2023-04-25T15:39:34;97319.25;;;11.39;67.81
76052;BME280;64751;48.708;9.710;2023-04-25T15:42:03;97319.91;;;11.49;67.58
76052;BME280;64751;48.708;9.710;2023-04-25T15:44:30;97315.41;;;11.50;67.00
76052;BME280;64751;48.708;9.710;2023-04-25T15:46:58;97315.94;;;11.52;67.56
76052;BME280;64751;48.708;9.710;2023-04-25T15:49:26;97318.91;;;11.64;66.79
76052;BME280;64751;48.708;9.710;2023-04-25T15:51:54;97316.50;;;11.68;67.33
76052;BME280;64751;48.708;9.710;2023-04-25T15:54:22;97318.69;;;11.60;66.74
76052;BME280;64751;48.708;9.710;2023-04-25T15:56:50;97315.69;;;11.48;65.71
76052;BME280;64751;48.708;9.710;2023-04-25T15:59:19;97318.13;;;11.26;66.78
76052;BME280;64751;48.708;9.710;2023-04-25T16:01:47;97320.13;;;11.16;67.95
76052;BME280;64751;48.708;9.710;2023-04-25T16:04:15;97317.25;;;11.12;67.15
76052;BME280;64751;48.708;9.710;2023-04-25T16:06:42;97314.72;;;11.07;66.60
76052;BME280;64751;48.708;9.710;2023-04-25T16:09:10;97320.09;;;10.97;67.09
76052;BME280;64751;48.708;9.710;2023-04-25T16:11:38;97326.88;;;10.84;68.05
76052;BME280;64751;48.708;9.710;2023-04-25T16:14:06;97325.13;;;10.75;67.03
76052;BME280;64751;48.708;9.710;2023-04-25T16:16:35;97322.03;;;10.68;67.08
76052;BME280;64751;48.708;9.710;2023-04-25T16:19:03;97322.44;;;10.56;67.76
76052;BME280;64751;48.708;9.710;2023-04-25T16:21:30;97325.41;;;10.50;68.91
76052;BME280;64751;48.708;9.710;2023-04-25T16:23:58;97323.66;;;10.40;69.13
76052;BME280;64751;48.708;9.710;2023-04-25T16:26:26;97331.88;;;10.39;68.87
76052;BME280;64751;48.708;9.710;2023-04-25T16:28:54;97334.03;;;10.32;68.64
76052;BME280;64751;48.708;9.710;2023-04-25T16:31:21;97330.91;;;10.30;69.69
76052;BME280;64751;48.708;9.710;2023-04-25T16:33:50;97337.97;;;10.34;69.43
76052;BME280;64751;48.708;9.710;2023-04-25T16:36:18;97338.50;;;10.36;69.61
76052;BME280;64751;48.708;9.710;2023-04-25T16:38:46;97340.06;;;10.37;69.48
76052;BME280;64751;48.708;9.710;2023-04-25T16:41:13;97336.13;;;10.35;68.63
76052;BME280;64751;48.708;9.710;2023-04-25T16:43:41;97339.78;;;10.39;69.13
76052;BME280;64751;48.708;9.710;2023-04-25T16:46:09;97333.47;;;10.40;69.90
76052;BME280;64751;48.708;9.710;2023-04-25T16:48:37;97338.13;;;10.48;70.07
76052;BME280;64751;48.708;9.710;2023-04-25T16:51:06;97347.50;;;10.59;69.61
76052;BME280;64751;48.708;9.710;2023-04-25T16:53:34;97342.13;;;10.69;68.88
76052;BME280;64751;48.708;9.710;2023-04-25T16:56:01;97340.78;;;10.71;67.90
76052;BME280;64751;48.708;9.710;2023-04-25T16:58:29;97341.03;;;10.70;68.51
76052;BME280;64751;48.708;9.710;2023-04-25T17:00:57;97348.47;;;10.68;68.14
76052;BME280;64751;48.708;9.710;2023-04-25T17:03:25;97346.38;;;10.65;68.59
76052;BME280;64751;48.708;9.710;2023-04-25T17:05:54;97351.97;;;10.58;68.19
76052;BME280;64751;48.708;9.710;2023-04-25T17:08:24;97344.19;;;10.48;67.94
76052;BME280;64751;48.708;9.710;2023-04-25T17:10:52;97349.00;;;10.41;67.98
76052;BME280;64751;48.708;9.710;2023-04-25T17:13:19;97355.97;;;10.32;68.73
76052;BME280;64751;48.708;9.710;2023-04-25T17:15:47;97351.50;;;10.28;68.28
76052;BME280;64751;48.708;9.710;2023-04-25T17:18:15;97357.63;;;10.23;68.98
76052;BME280;64751;48.708;9.710;2023-04-25T17:20:43;97362.94;;;10.18;68.61
76052;BME280;64751;48.708;9.710;2023-04-25T17:23:11;97354.84;;;10.04;70.39
76052;BME280;64751;48.708;9.710;2023-04-25T17:25:40;97368.88;;;10.00;70.53
76052;BME280;64751;48.708;9.710;2023-04-25T17:28:08;97365.25;;;9.91;72.07
76052;BME280;64751;48.708;9.710;2023-04-25T17:30:35;97369.78;;;9.85;72.04
76052;BME280;64751;48.708;9.710;2023-04-25T17:33:03;97371.16;;;9.78;71.95
76052;BME280;64751;48.708;9.710;2023-04-25T17:35:31;97373.03;;;9.77;70.48
76052;BME280;64751;48.708;9.710;2023-04-25T17:38:00;97369.84;;;9.75;71.29
76052;BME280;64751;48.708;9.710;2023-04-25T17:40:28;97366.97;;;9.72;70.92
76052;BME280;64751;48.708;9.710;2023-04-25T17:42:57;97377.25;;;9.73;72.15
76052;BME280;64751;48.708;9.710;2023-04-25T17:45:24;97378.56;;;9.71;72.25
76052;BME280;64751;48.708;9.710;2023-04-25T17:47:52;97379.66;;;9.70;71.86
76052;BME280;64751;48.708;9.710;2023-04-25T17:50:20;97384.66;;;9.66;71.95
76052;BME280;64751;48.708;9.710;2023-04-25T17:52:48;97382.59;;;9.63;71.89
76052;BME280;64751;48.708;9.710;2023-04-25T17:55:15;97384.97;;;9.60;72.59
76052;BME280;64751;48.708;9.710;2023-04-25T17:57:43;97391.06;;;9.55;72.83
76052;BME280;64751;48.708;9.710;2023-04-25T18:00:13;97388.22;;;9.46;73.90
76052;BME280;64751;48.708;9.710;2023-04-25T18:02:42;97387.19;;;9.42;73.42
76052;BME280;64751;48.708;9.710;2023-04-25T18:05:10;97401.72;;;9.40;73.90
76052;BME280;64751;48.708;9.710;2023-04-25T18:07:38;97401.50;;;9.31;73.81
76052;BME280;64751;48.708;9.710;2023-04-25T18:10:07;97401.78;;;9.30;73.62
76052;BME280;64751;48.708;9.710;2023-04-25T18:12:36;97396.53;;;9.25;74.42
76052;BME280;64751;48.708;9.710;2023-04-25T18:15:05;97401.53;;;9.21;73.54
76052;BME280;64751;48.708;9.710;2023-04-25T18:17:35;97400.75;;;9.21;74.01
76052;BME280;64751;48.708;9.710;2023-04-25T18:20:07;97418.69;;;9.19;74.02
76052;BME280;64751;48.708;9.710;2023-04-25T18:22:37;97415.00;;;9.15;74.76
76052;BME280;64751;48.708;9.710;2023-04-25T18:25:05;97428.72;;;9.12;74.20
76052;BME280;64751;48.708;9.710;2023-04-25T18:27:35;97429.75;;;9.11;74.86
76052;BME280;64751;48.708;9.710;2023-04-25T18:30:04;97434.00;;;9.07;73.81
76052;BME280;64751;48.708;9.710;2023-04-25T18:32:32;97440.53;;;9.19;84.74
76052;BME280;64751;48.708;9.710;2023-04-25T18:35:02;97445.97;;;10.88;98.06
76052;BME280;64751;48.708;9.710;2023-04-25T18:37:29;97445.16;;;11.58;100.00
76052;BME280;64751;48.708;9.710;2023-04-25T18:39:57;97443.88;;;12.30;100.00
76052;BME280;64751;48.708;9.710;2023-04-25T18:42:25;97451.41;;;12.69;100.00
76052;BME280;64751;48.708;9.710;2023-04-25T18:44:52;97446.75;;;12.80;100.00
76052;BME280;64751;48.708;9.710;2023-04-25T18:47:20;97457.91;;;12.77;100.00
76052;BME280;64751;48.708;9.710;2023-04-25T18:49:48;97465.13;;;12.58;100.00
76052;BME280;64751;48.708;9.710;2023-04-25T18:52:17;97464.75;;;12.32;100.00
76052;BME280;64751;48.708;9.710;2023-04-25T18:54:45;97477.09;;;11.62;100.00
76052;BME280;64751;48.708;9.710;2023-04-25T18:57:12;97483.00;;;10.83;100.00
76052;BME280;64751;48.708;9.710;2023-04-25T18:59:42;97482.88;;;10.36;100.00
76052;BME280;64751;48.708;9.710;2023-04-25T19:02:11;97494.94;;;10.13;100.00
76052;BME280;64751;48.708;9.710;2023-04-25T19:04:41;97490.56;;;9.88;100.00
76052;BME280;64751;48.708;9.710;2023-04-25T19:07:10;97503.88;;;9.68;100.00
76052;BME280;64751;48.708;9.710;2023-04-25T19:09:39;97500.44;;;9.63;99.79
76052;BME280;64751;48.708;9.710;2023-04-25T19:12:07;97500.16;;;9.69;99.65
76052;BME280;64751;48.708;9.710;2023-04-25T19:14:35;97510.19;;;9.67;98.77
76052;BME280;64751;48.708;9.710;2023-04-25T19:17:02;97514.44;;;9.63;96.12
76052;BME280;64751;48.708;9.710;2023-04-25T19:19:30;97506.31;;;9.49;96.05
76052;BME280;64751;48.708;9.710;2023-04-25T19:21:58;97516.56;;;9.56;95.65
76052;BME280;64751;48.708;9.710;2023-04-25T19:24:26;97516.56;;;9.61;98.12
76052;BME280;64751;48.708;9.710;2023-04-25T19:26:55;97517.16;;;9.43;92.37
76052;BME280;64751;48.708;9.710;2023-04-25T19:29:22;97513.00;;;9.17;87.44
76052;BME280;64751;48.708;9.710;2023-04-25T19:31:50;97519.63;;;8.99;86.48
76052;BME280;64751;48.708;9.710;2023-04-25T19:34:18;97517.81;;;8.85;86.93
76052;BME280;64751;48.708;9.710;2023-04-25T19:36:45;97513.59;;;8.73;87.46
76052;BME280;64751;48.708;9.710;2023-04-25T19:39:14;97516.22;;;8.68;88.02
76052;BME280;64751;48.708;9.710;2023-04-25T19:41:41;97517.31;;;8.62;86.54
76052;BME280;64751;48.708;9.710;2023-04-25T19:44:10;97513.06;;;8.61;86.83
76052;BME280;64751;48.708;9.710;2023-04-25T19:46:38;97526.22;;;8.61;87.29
76052;BME280;64751;48.708;9.710;2023-04-25T19:49:07;97523.09;;;8.59;87.49
76052;BME280;64751;48.708;9.710;2023-04-25T19:51:35;97519.13;;;8.57;86.26
76052;BME280;64751;48.708;9.710;2023-04-25T19:54:03;97532.28;;;8.57;85.76
76052;BME280;64751;48.708;9.710;2023-04-25T19:56:31;97523.59;;;8.56;84.12
76052;BME280;64751;48.708;9.710;2023-04-25T19:58:59;97530.72;;;8.56;86.43
76052;BME280;64751;48.708;9.710;2023-04-25T20:01:28;97528.34;;;8.54;82.80
76052;BME280;64751;48.708;9.710;2023-04-25T20:03:55;97526.75;;;8.48;81.57
76052;BME280;64751;48.708;9.710;2023-04-25T20:06:23;97526.25;;;8.46;84.55
76052;BME280;64751;48.708;9.710;2023-04-25T20:08:52;97526.50;;;8.45;83.14
76052;BME280;64751;48.708;9.710;2023-04-25T20:11:20;97521.25;;;8.45;82.47
76052;BME280;64751;48.708;9.710;2023-04-25T20:13:48;97518.09;;;8.43;81.83
76052;BME280;64751;48.708;9.710;2023-04-25T20:16:15;97518.34;;;8.46;81.40
76052;BME280;64751;48.708;9.710;2023-04-25T20:18:47;97529.66;;;8.47;82.43
76052;BME280;64751;48.708;9.710;2023-04-25T20:21:15;97522.56;;;8.42;82.71
76052;BME280;64751;48.708;9.710;2023-04-25T20:23:43;97519.41;;;8.40;82.55
76052;BME280;64751;48.708;9.710;2023-04-25T20:26:11;97532.00;;;8.43;81.71
76052;BME280;64751;48.708;9.710;2023-04-25T20:28:39;97531.78;;;8.45;81.59
76052;BME280;64751;48.708;9.710;2023-04-25T20:31:08;97542.53;;;8.43;82.65
76052;BME280;64751;48.708;9.710;2023-04-25T20:33:36;97534.41;;;8.45;81.94
76052;BME280;64751;48.708;9.710;2023-04-25T20:36:05;97539.91;;;8.43;82.83
76052;BME280;64751;48.708;9.710;2023-04-25T20:38:33;97543.06;;;8.45;82.99
76052;BME280;64751;48.708;9.710;2023-04-25T20:41:01;97553.34;;;8.42;82.47
76052;BME280;64751;48.708;9.710;2023-04-25T20:43:29;97535.97;;;8.31;82.77
76052;BME280;64751;48.708;9.710;2023-04-25T20:45:56;97548.34;;;8.35;81.93
76052;BME280;64751;48.708;9.710;2023-04-25T20:48:25;97549.66;;;8.33;81.94
76052;BME280;64751;48.708;9.710;2023-04-25T20:50:52;97554.91;;;8.33;82.79
76052;BME280;64751;48.708;9.710;2023-04-25T20:53:22;97545.41;;;8.32;81.68
76052;BME280;64751;48.708;9.710;2023-04-25T20:55:49;97553.06;;;8.33;81.99
76052;BME280;64751;48.708;9.710;2023-04-25T20:58:17;97555.97;;;8.37;81.86
76052;BME280;64751;48.708;9.710;2023-04-25T21:00:45;97552.28;;;8.38;82.65
76052;BME280;64751;48.708;9.710;2023-04-25T21:03:14;97556.47;;;8.39;82.25
76052;BME280;64751;48.708;9.710;2023-04-25T21:05:42;97566.47;;;8.37;81.99
76052;BME280;64751;48.708;9.710;2023-04-25T21:08:09;97573.06;;;8.39;81.92
76052;BME280;64751;48.708;9.710;2023-04-25T21:10:39;97573.88;;;8.40;81.56
76052;BME280;64751;48.708;9.710;2023-04-25T21:13:07;97566.25;;;8.38;81.41
76052;BME280;64751;48.708;9.710;2023-04-25T21:15:35;97570.44;;;8.39;81.45
76052;BME280;64751;48.708;9.710;2023-04-25T21:18:03;97576.22;;;8.41;82.13
76052;BME280;64751;48.708;9.710;2023-04-25T21:20:32;97567.28;;;8.42;81.22
76052;BME280;64751;48.708;9.710;2023-04-25T21:23:00;97575.69;;;8.39;80.88
76052;BME280;64751;48.708;9.710;2023-04-25T21:25:27;97580.16;;;8.39;81.84
76052;BME280;64751;48.708;9.710;2023-04-25T21:27:57;97590.97;;;8.37;82.35
76052;BME280;64751;48.708;9.710;2023-04-25T21:30:27;97582.53;;;8.35;82.30
76052;BME280;64751;48.708;9.710;2023-04-25T21:32:55;97578.31;;;8.34;81.52
76052;BME280;64751;48.708;9.710;2023-04-25T21:35:23;97572.53;;;8.32;81.74
76052;BME280;64751;48.708;9.710;2023-04-25T21:37:51;97585.69;;;8.32;81.84
76052;BME280;64751;48.708;9.710;2023-04-25T21:40:18;97587.00;;;8.30;82.58
76052;BME280;64751;48.708;9.710;2023-04-25T21:42:47;97590.94;;;8.27;82.03
76052;BME280;64751;48.708;9.710;2023-04-25T21:45:19;97593.00;;;8.25;82.22
76052;BME280;64751;48.708;9.710;2023-04-25T21:47:47;97595.38;;;8.22;81.45
76052;BME280;64751;48.708;9.710;2023-04-25T21:50:16;97582.75;;;8.24;81.91
76052;BME280;64751;48.708;9.710;2023-04-25T21:52:44;97587.75;;;8.25;81.70
76052;BME280;64751;48.708;9.710;2023-04-25T21:55:12;97592.47;;;8.23;80.98
76052;BME280;64751;48.708;9.710;2023-04-25T21:57:40;97592.47;;;8.23;81.42
76052;BME280;64751;48.708;9.710;2023-04-25T22:00:08;97588.56;;;8.26;81.10
